Maryland AWOS List, Phone Numbers

USA |  
| Search AWOS

Rocky Mountain States: Montana | Wyoming | Colorado | New Mexico

Complete weather reports: Maryland

Legend: KFNL = METAR available Follow your local AWOS on AV Mobile = METAR available on AV Mobile
Station Maryland Location Frequency Phone
KAPGFAA ID APG, KAPG 222353Z 00000KT 6SM -RA BR OVC030 12/11 A2991 Follow KAPG on AV Mobile Phillips Army Air Field / Aberdeen
K61WICAO ID K61W Annapolis Coast Guard Station
KNAKICAO ID KNAK, KNAK 230254Z AUTO 33017G21KT 10SM -RA BKN090 OVC110 13/08 A2990 RMK AO2 SLP125 P0000 60001 T01330078 58003 Follow KNAK on AV Mobile ANNAPOLIS US NAVAL ACADEMY
KLWXICAO ID KLWX Baltimore / DC Nexrad
KDMHICAO ID KDMH, KDMH 230254Z AUTO 12/07 A2991 RMK AO1 SLP129 T01220067 58001 Follow KDMH on AV Mobile BALTIMORE DOWNTOWN
KMTNFAA ID MTN, AWOS-3, KMTN 230330Z AUTO 29014G19KT 10SM BKN055 12/08 A2989 Follow KMTN on AV Mobile Baltimore / Martin 410-682-8848
KBWIFAA ID BWI, ASOS, KBWI 230254Z 32010G20KT 10SM FEW036 BKN050 BKN110 12/07 A2991 Follow KBWI on AV Mobile BALTIMORE-WASHINGTON INTERNATIONAL 410-691-1278
4MDFAA ID 4MD, Belfort PIER 7
KCGEFAA ID CGE, AWOS-3, KCGE 230331Z AUTO 32010G22KT M1/4SM OVC032 13/08 A2985 RMK AO1 Follow KCGE on AV Mobile CAMBRIDGE 120.675 410-228-7559
KADWFAA ID ADW, KADW 230327Z AUTO 31014KT 10SM -RA FEW037 OVC050 12/07 A2992 RMK AO2 Follow KADW on AV Mobile Camp Springs / Andrews Air Force Base
W32FAA ID W32, Belfort WASHINGTON EXECUTIVE/HYDE FIELD
KCGSFAA ID CGS, AWOS-3, KCGS 230330Z AUTO 31007KT 280V340 10SM SCT036 BKN060 12/07 A2993 RMK AO1 Follow KCGS on AV Mobile COLLEGE PARK 121.225 301-864-5497
K66WICAO ID K66W Cove Point Coast Guard Light Station
KCBEFAA ID CBE, AWOS-3, KCBE 230333Z AUTO 32012G19KT 311V021 10SM BKN029 11/05 A3011 Follow KCBE on AV Mobile Cumberland, Greater Cumberland Regional Airport 128.625 304-738-0451
KESNFAA ID ESN, AWOS-3, KESN 230325Z AUTO 36012G23KT 10SM OVC031 13/10 A2990 Follow KESN on AV Mobile Easton / Newman Field 124.475 410-822-2817
KFMEFAA ID FME, AWOS-3, KFME 230333Z AUTO 31007G14KT 10SM SCT034 SCT040 OVC055 11/06 A2994 RMK AO1 Follow KFME on AV Mobile Fort Meade / Tipton 123.925
KJWXICAO ID KJWX Fort Ritchie
KFDKFAA ID FDK, AWOS-3, KFDK 230330Z AUTO 32007KT 10SM OVC038 13/06 A2999 Follow KFDK on AV Mobile Frederick, Frederick Municipal Airport 124.875 301-600-1457
KGAIFAA ID GAI, AWOS-3, KGAI 230335Z 31008G14KT 10SM OVC032 11/06 A2998 RMK AO1 Follow KGAI on AV Mobile GAITHERSBURG 128.275 301-977-2971
KHGRFAA ID HGR, ASOS, KHGR 230253Z AUTO 32010KT 10SM FEW060 09/05 A2999 RMK AO2 SLP167 T00940050 58003 TSNO Follow KHGR on AV Mobile HAGERSTOWN REGIONAL AIRPORT 126.375 301-745-3497
K2W6FAA ID 2W6, AWOS-3, K2W6 230331Z AUTO 29008G16KT 10SM BKN044 OVC060 11/07 A2991 RMK AO1 Follow K2W6 on AV Mobile LEONARDTOWN 119.575 301-373-6514
K2G4FAA ID 2G4, AWOS-3, K2G4 230330Z AUTO 31009G15KT 292V352 1/4SM FG OVC002 03/ A3009 RMK AO1 Follow K2G4 on AV Mobile OAKLAND 120.125 301-746-8443
KW30ICAO ID KW30 Ocean City
KN80ICAO ID KN80 Ocean City, Ocean City Municipal Airport
KOXBFAA ID OXB, ASOS, KOXB 230253Z AUTO 33014G21KT 10SM BKN015 OVC023 12/10 A2979 RMK AO2 SLP086 60000 T01170100 50001 TSNO Follow KOXB on AV Mobile OCEAN CITY MUNICIPAL AIRPORT 119.025 410-213-1530
KNHKFAA ID NHK, KNHK 230252Z 32019G27KT 10SM BKN037 OVC055 13/08 A2989 RMK AO2 PK WND 33029/0232 SLP120 P0001 60001 T01280083 58003 Follow KNHK on AV Mobile NAS PATUXENT RIVER MD
KSBYFAA ID SBY, ASOS, KSBY 230254Z AUTO 32015G21KT 10SM OVC025 13/09 A2982 Follow KSBY on AV Mobile SALISBURY-WICOMICO CTY REG 118.325 410-341-0868
KNUIFAA ID NUI, KNUI 230253Z AUTO 31009G16KT 10SM BKN038 OVC055 12/07 A2989 RMK AO2 SLP119 60000 T01220072 58002 Follow KNUI on AV Mobile KNUI WEBSTER FIELD ANNEX
KW29FAA ID W29, AWOS-3, KW29 230332Z AUTO 32012G20KT 10SM 12/07 A2987 RMK AO1 Follow KW29 on AV Mobile STEVENSVILLE 120.575 410-643-8795
K67WICAO ID K67W Stillpond Coast Guard Station
K65WICAO ID K65W Thomas Point Coast Guard Station
KDMWFAA ID DMW, AWOS-3, KDMW 230330Z AUTO 33007KT 10SM OVC027 11/07 A2994 RMK AO2 Follow KDMW on AV Mobile WESTMINSTER 121.25 410-876-1281

Click on the AV Mobile icon AV Mobile icon by any station to follow that AWOS feed on AirportView.net Mobile.

Garmin aera 796 $1999 at Avionics Specialists LLC
Bose A20 Aviation Headsets $995 at Avionics Specialists LLC